Time;durP1;ratioP1;P1;durP2;ratioP2;P2;SDS_P1;SDS_P2;PMS_P1;PMS_P2;Temp;Humidity;BMP_temperature;BMP_pressure;BME280_temperature;BME280_humidity;BME280_pressure;Samples;Min_cycle;Max_cycle;Signal;HPM_P1;HPM_P2
2020/12/26 00:02:21;;;;;;;8.38;6.10;;;0.30;99.90;;;;;;4969529;28;20606;-74
2020/12/26 00:04:47;;;;;;;8.98;6.20;;;0.30;99.90;;;;;;4983064;28;20257;-74
2020/12/26 00:07:14;;;;;;;9.90;5.93;;;0.40;99.90;;;;;;4989527;28;20203;-73
2020/12/26 00:09:40;;;;;;;11.85;6.85;;;0.20;99.90;;;;;;4989874;28;20203;-73
2020/12/26 00:12:07;;;;;;;11.60;6.43;;;0.10;99.90;;;;;;4989008;28;20281;-73
2020/12/26 00:14:33;;;;;;;10.75;6.65;;;0.00;99.90;;;;;;4989483;28;20226;-72
2020/12/26 00:17:01;;;;;;;10.50;6.35;;;0.10;99.90;;;;;;4989629;28;20289;-73
2020/12/26 00:19:29;;;;;;;12.15;6.47;;;0.10;99.90;;;;;;4988924;28;20229;-73
2020/12/26 00:21:55;;;;;;;8.98;6.25;;;0.10;99.90;;;;;;4988899;28;20218;-73
2020/12/26 00:24:21;;;;;;;11.07;6.22;;;0.20;99.90;;;;;;4989153;28;20234;-73
2020/12/26 00:26:47;;;;;;;7.88;6.05;;;0.20;99.90;;;;;;4987010;28;20211;-73
2020/12/26 00:29:14;;;;;;;9.55;6.20;;;0.10;99.90;;;;;;4969755;28;20555;-73
2020/12/26 00:31:40;;;;;;;9.77;6.65;;;0.00;99.90;;;;;;4969213;28;20219;-74
2020/12/26 00:34:06;;;;;;;11.50;7.03;;;-0.10;99.90;;;;;;4969782;28;20222;-73
2020/12/26 00:36:33;;;;;;;8.77;6.40;;;-0.30;99.90;;;;;;4970249;28;20203;-72
2020/12/26 00:39:00;;;;;;;9.55;5.97;;;-0.30;99.90;;;;;;4970111;28;20315;-72
2020/12/26 00:41:26;;;;;;;12.15;7.50;;;-0.40;99.90;;;;;;4969750;28;20218;-72
2020/12/26 00:43:52;;;;;;;12.65;6.55;;;-0.40;99.90;;;;;;4969274;28;20231;-72
2020/12/26 00:46:21;;;;;;;11.65;7.03;;;-0.40;99.90;;;;;;4969617;28;20200;-72
2020/12/26 00:48:48;;;;;;;11.95;7.45;;;-0.40;99.90;;;;;;4969988;28;20214;-72
2020/12/26 00:51:14;;;;;;;11.40;6.18;;;-0.40;99.90;;;;;;4969280;28;20203;-73
2020/12/26 00:53:41;;;;;;;10.50;6.40;;;-0.40;99.90;;;;;;4986861;28;20792;-72
2020/12/26 00:56:07;;;;;;;9.98;6.50;;;-0.30;99.90;;;;;;4989253;28;20210;-73
2020/12/26 00:58:33;;;;;;;9.45;6.35;;;-0.20;99.90;;;;;;4989221;28;20262;-72
2020/12/26 01:00:59;;;;;;;11.82;6.80;;;-0.30;99.90;;;;;;4989122;28;20211;-73
2020/12/26 01:03:27;;;;;;;11.90;7.00;;;-0.40;99.90;;;;;;4988355;28;20659;-72
2020/12/26 01:05:53;;;;;;;10.82;6.85;;;-0.40;99.90;;;;;;4989292;28;20246;-72
2020/12/26 01:08:19;;;;;;;9.25;6.68;;;-0.40;99.90;;;;;;4989030;28;20667;-72
2020/12/26 01:10:47;;;;;;;10.27;7.55;;;-0.50;99.90;;;;;;4989298;28;20207;-72
2020/12/26 01:13:13;;;;;;;9.55;6.30;;;-0.60;99.90;;;;;;4988320;28;20223;-72
2020/12/26 01:15:39;;;;;;;9.82;6.93;;;-0.60;99.90;;;;;;4989160;28;20203;-72
2020/12/26 01:18:05;;;;;;;12.18;7.47;;;-0.70;99.90;;;;;;4988829;28;20879;-72
2020/12/26 01:20:31;;;;;;;13.15;7.25;;;-0.70;99.90;;;;;;4988840;28;20338;-73
2020/12/26 01:22:57;;;;;;;10.88;7.13;;;-0.70;99.90;;;;;;4971265;28;20227;-71
2020/12/26 01:25:24;;;;;;;9.82;6.53;;;-0.70;99.90;;;;;;4969064;28;20220;-71
2020/12/26 01:27:51;;;;;;;10.93;7.30;;;-0.60;99.90;;;;;;4969789;28;20261;-71
2020/12/26 01:30:17;;;;;;;8.32;6.35;;;-0.60;99.90;;;;;;4970187;28;20200;-71
2020/12/26 01:32:43;;;;;;;13.20;7.28;;;-0.60;99.90;;;;;;4972393;28;20578;-72
2020/12/26 01:35:09;;;;;;;10.95;7.13;;;-0.70;99.90;;;;;;4972855;28;20196;-72
2020/12/26 01:37:35;;;;;;;13.30;7.40;;;-0.70;99.90;;;;;;4972971;28;20258;-71
2020/12/26 01:40:02;;;;;;;11.27;7.32;;;-0.80;99.90;;;;;;4973160;28;20235;-71
2020/12/26 01:42:28;;;;;;;11.90;7.15;;;-0.90;99.90;;;;;;4972047;28;20735;-71
2020/12/26 01:44:55;;;;;;;9.90;6.80;;;-0.90;99.90;;;;;;4972768;28;20227;-71
2020/12/26 01:47:21;;;;;;;11.60;7.75;;;-0.90;99.90;;;;;;4972497;28;20766;-71
2020/12/26 01:49:47;;;;;;;10.23;7.47;;;-1.00;99.90;;;;;;4972724;28;20203;-71
2020/12/26 01:52:16;;;;;;;9.10;6.32;;;-1.10;99.90;;;;;;4971863;28;20204;-71
2020/12/26 01:54:42;;;;;;;11.35;6.53;;;-1.20;99.90;;;;;;4984147;28;20722;-71
2020/12/26 01:57:09;;;;;;;11.38;7.50;;;-1.20;99.90;;;;;;4991859;28;20199;-71
2020/12/26 01:59:35;;;;;;;10.55;7.15;;;-1.20;99.90;;;;;;4992095;28;20261;-71
2020/12/26 02:02:07;;;;;;;9.07;6.53;;;-1.30;99.90;;;;;;4991203;28;20217;-71
2020/12/26 02:04:33;;;;;;;9.05;6.93;;;-1.30;99.90;;;;;;4991637;28;20227;-71
2020/12/26 02:07:02;;;;;;;10.00;7.00;;;-1.30;99.90;;;;;;4991731;28;20551;-71
2020/12/26 02:09:28;;;;;;;12.07;7.93;;;-1.20;99.90;;;;;;4991410;28;20207;-71
2020/12/26 02:11:55;;;;;;;15.05;7.25;;;-1.10;99.90;;;;;;4990999;28;20203;-71
2020/12/26 02:14:21;;;;;;;12.43;8.65;;;-1.10;99.90;;;;;;4990999;28;20226;-71
2020/12/26 02:16:49;;;;;;;13.65;7.18;;;-1.10;99.90;;;;;;4991722;28;20581;-71
2020/12/26 02:19:17;;;;;;;10.93;8.13;;;-1.00;99.90;;;;;;4991288;28;20258;-71
2020/12/26 02:21:44;;;;;;;16.20;9.38;;;-0.90;99.90;;;;;;4983445;28;20695;-71
2020/12/26 02:24:11;;;;;;;16.90;9.95;;;-0.90;99.90;;;;;;4971379;28;20227;-70
2020/12/26 02:26:38;;;;;;;18.38;9.20;;;-0.80;99.90;;;;;;4971916;28;20258;-71
2020/12/26 02:29:05;;;;;;;14.75;8.70;;;-0.70;99.90;;;;;;4971779;28;20235;-71
2020/12/26 02:31:31;;;;;;;15.20;9.45;;;-0.60;99.90;;;;;;4971404;28;20307;-71
2020/12/26 02:33:57;;;;;;;12.20;8.90;;;-0.60;99.90;;;;;;4971483;28;20227;-71
2020/12/26 02:36:23;;;;;;;13.93;8.00;;;-0.60;99.90;;;;;;4971504;28;20631;-72
2020/12/26 02:38:50;;;;;;;18.48;9.38;;;-0.50;99.90;;;;;;4971789;28;20214;-72
2020/12/26 02:41:17;;;;;;;16.90;10.00;;;-0.50;99.90;;;;;;4971099;28;20204;-72
2020/12/26 02:43:43;;;;;;;14.20;9.18;;;-0.50;99.90;;;;;;4970525;28;20238;-72
2020/12/26 02:46:09;;;;;;;14.35;8.48;;;-0.40;99.90;;;;;;4971526;28;20204;-71
2020/12/26 02:48:35;;;;;;;13.93;7.93;;;-0.40;99.90;;;;;;4969076;28;20217;-72
2020/12/26 02:51:02;;;;;;;16.55;9.15;;;-0.40;99.90;;;;;;4970287;28;20204;-73
2020/12/26 02:53:29;;;;;;;11.43;8.07;;;-0.40;99.90;;;;;;4970088;28;20219;-72
2020/12/26 02:55:55;;;;;;;16.95;9.82;;;-0.40;99.90;;;;;;4971249;28;20204;-73
2020/12/26 02:58:22;;;;;;;16.90;9.07;;;-0.40;99.90;;;;;;4971078;28;20211;-73
2020/12/26 03:00:49;;;;;;;17.92;9.30;;;-0.40;99.90;;;;;;4971474;28;20215;-74
2020/12/26 03:03:15;;;;;;;12.68;8.85;;;-0.40;99.90;;;;;;4970139;28;20224;-72
2020/12/26 03:05:41;;;;;;;13.55;8.02;;;-0.50;99.90;;;;;;4971078;28;20232;-73
2020/12/26 03:08:08;;;;;;;13.93;8.05;;;-0.50;99.90;;;;;;4970952;28;20212;-72
2020/12/26 03:10:34;;;;;;;12.25;8.15;;;-0.50;99.90;;;;;;4970704;28;20203;-73
2020/12/26 03:13:00;;;;;;;13.27;8.07;;;-0.50;99.90;;;;;;4970419;28;20656;-73
2020/12/26 03:15:28;;;;;;;11.23;7.13;;;-0.50;99.90;;;;;;5160413;23;20774;-71
2020/12/26 03:17:54;;;;;;;15.07;8.57;;;-0.50;99.90;;;;;;5010653;28;20195;-71
2020/12/26 03:20:20;;;;;;;12.27;8.32;;;-0.50;99.90;;;;;;5010575;28;20205;-71
2020/12/26 03:22:46;;;;;;;13.35;8.07;;;-0.50;99.90;;;;;;4994587;28;20199;-73
2020/12/26 03:25:12;;;;;;;10.73;7.50;;;-0.40;99.90;;;;;;4970801;28;20643;-71
2020/12/26 03:27:39;;;;;;;11.20;6.82;;;-0.50;99.90;;;;;;4970480;28;20208;-72
2020/12/26 03:30:05;;;;;;;15.15;8.40;;;-0.60;99.90;;;;;;4970467;28;20572;-72
2020/12/26 03:32:33;;;;;;;12.77;7.30;;;-0.60;99.90;;;;;;4969966;28;20204;-72
2020/12/26 03:34:59;;;;;;;12.65;7.68;;;-0.50;99.90;;;;;;4969421;28;20208;-72
2020/12/26 03:37:25;;;;;;;12.70;7.10;;;-0.50;99.90;;;;;;4970468;28;20243;-71
2020/12/26 03:39:51;;;;;;;12.50;8.20;;;-0.70;99.90;;;;;;4970703;28;20258;-72
2020/12/26 03:42:18;;;;;;;11.70;7.78;;;-0.80;99.90;;;;;;4969572;28;20222;-72
2020/12/26 03:44:44;;;;;;;11.70;8.05;;;-0.90;99.90;;;;;;4970017;28;20231;-73
2020/12/26 03:47:11;;;;;;;11.30;7.07;;;-1.00;99.90;;;;;;4970243;28;20215;-73
2020/12/26 03:49:38;;;;;;;11.43;8.30;;;-1.00;99.90;;;;;;4969899;28;20254;-73
2020/12/26 03:52:04;;;;;;;13.80;7.50;;;-1.00;99.90;;;;;;4972893;28;20199;-72
2020/12/26 03:54:31;;;;;;;10.15;7.40;;;-0.90;99.90;;;;;;4969491;28;20220;-73
2020/12/26 03:56:57;;;;;;;12.32;6.70;;;-1.00;99.90;;;;;;4970148;28;20207;-73
2020/12/26 03:59:24;;;;;;;11.32;7.60;;;-1.10;99.90;;;;;;4970011;28;20219;-73
2020/12/26 04:01:50;;;;;;;14.15;7.13;;;-1.00;99.90;;;;;;4969753;28;20768;-73
2020/12/26 04:04:16;;;;;;;13.50;8.13;;;-1.00;99.90;;;;;;4970029;28;20601;-72
2020/12/26 04:06:44;;;;;;;12.48;6.78;;;-1.10;99.90;;;;;;4969794;28;20672;-73
2020/12/26 04:09:10;;;;;;;9.25;6.40;;;-1.20;99.90;;;;;;4970017;28;20207;-71
2020/12/26 04:11:37;;;;;;;10.80;7.15;;;-1.30;99.90;;;;;;4969510;28;20978;-72
2020/12/26 04:14:03;;;;;;;17.10;8.63;;;-1.30;99.90;;;;;;4969639;28;20224;-72
2020/12/26 04:16:30;;;;;;;16.20;7.53;;;-1.20;99.90;;;;;;4969719;28;20238;-72
2020/12/26 04:18:57;;;;;;;9.13;6.95;;;-1.10;99.90;;;;;;4969879;28;20200;-72
2020/12/26 04:21:24;;;;;;;11.75;6.80;;;-1.00;99.90;;;;;;4972997;28;20211;-71
2020/12/26 04:23:51;;;;;;;12.55;6.90;;;-1.00;99.90;;;;;;4968958;28;20234;-73
2020/12/26 04:26:17;;;;;;;13.57;7.63;;;-1.00;99.90;;;;;;4969894;28;20200;-74
2020/12/26 04:28:44;;;;;;;11.93;6.35;;;-1.00;99.90;;;;;;4969860;28;20270;-73
2020/12/26 04:31:10;;;;;;;9.85;6.45;;;-0.90;99.90;;;;;;4969423;28;20621;-73
2020/12/26 04:33:36;;;;;;;11.55;6.55;;;-0.90;99.90;;;;;;4969363;28;20223;-73
2020/12/26 04:36:03;;;;;;;10.45;6.88;;;-0.90;99.90;;;;;;4970451;28;20583;-73
2020/12/26 04:38:29;;;;;;;13.02;6.70;;;-1.00;99.90;;;;;;4969864;28;20274;-72
2020/12/26 04:40:57;;;;;;;11.45;6.90;;;-0.90;99.90;;;;;;4969505;28;20211;-72
2020/12/26 04:43:24;;;;;;;11.20;6.95;;;-0.90;99.90;;;;;;4968896;28;20231;-72
2020/12/26 04:45:54;;;;;;;8.52;5.55;;;-0.80;99.90;;;;;;4969791;28;20220;-73
2020/12/26 04:48:22;;;;;;;14.02;7.28;;;-0.80;99.90;;;;;;4969575;28;20231;-71
2020/12/26 04:50:51;;;;;;;9.50;6.13;;;-0.80;99.90;;;;;;4969848;28;20204;-72
2020/12/26 04:53:19;;;;;;;11.60;6.80;;;-0.70;99.90;;;;;;4971435;28;20227;-71
2020/12/26 04:55:48;;;;;;;10.20;6.10;;;-0.80;99.90;;;;;;4969809;28;20202;-73
2020/12/26 04:58:16;;;;;;;12.15;7.25;;;-0.80;99.90;;;;;;4969356;28;20227;-74
2020/12/26 05:00:43;;;;;;;7.97;6.22;;;-0.90;99.90;;;;;;4969546;28;20695;-71
2020/12/26 05:03:11;;;;;;;11.13;7.57;;;-0.90;99.90;;;;;;4968972;28;20231;-72
2020/12/26 05:05:38;;;;;;;13.50;7.10;;;-0.90;99.90;;;;;;4970990;28;20228;-72
2020/12/26 05:08:05;;;;;;;9.73;7.03;;;-0.90;99.90;;;;;;4973478;28;20208;-71
2020/12/26 05:10:32;;;;;;;11.60;7.15;;;-0.90;99.90;;;;;;4972982;28;20208;-71
2020/12/26 05:13:00;;;;;;;13.10;8.00;;;-0.80;99.90;;;;;;4973205;28;20227;-73
2020/12/26 05:15:27;;;;;;;12.45;6.75;;;-0.80;99.90;;;;;;4973363;28;20219;-71
2020/12/26 05:17:53;;;;;;;17.55;7.32;;;-0.70;99.90;;;;;;4973650;28;20203;-71
2020/12/26 05:20:22;;;;;;;12.93;7.57;;;-0.70;99.90;;;;;;4973495;28;20203;-73
2020/12/26 05:22:48;;;;;;;12.18;7.20;;;-0.60;99.90;;;;;;4976103;28;20622;-72
2020/12/26 05:25:15;;;;;;;12.45;8.90;;;-0.60;99.90;;;;;;4990608;28;20219;-74
2020/12/26 05:27:42;;;;;;;18.40;10.05;;;-0.50;99.90;;;;;;4995272;28;20206;-76
2020/12/26 05:30:08;;;;;;;17.27;10.00;;;-0.40;99.90;;;;;;4994421;28;20203;-77
2020/12/26 05:32:35;;;;;;;14.30;8.85;;;-0.40;99.90;;;;;;4993411;28;20207;-76
2020/12/26 05:35:06;;;;;;;11.07;8.23;;;-0.30;99.90;;;;;;4994993;28;20195;-76
2020/12/26 05:37:33;;;;;;;13.45;8.90;;;-0.30;99.90;;;;;;4992761;28;20211;-76
2020/12/26 05:40:00;;;;;;;19.70;9.57;;;-0.30;99.90;;;;;;4992596;28;20199;-76
2020/12/26 05:42:28;;;;;;;14.85;9.80;;;-0.20;99.90;;;;;;4992127;28;20242;-76
2020/12/26 05:45:04;;;;;;;19.55;10.07;;;-0.20;99.90;;;;;;4992395;28;20219;-76
2020/12/26 05:47:31;;;;;;;14.63;9.32;;;-0.30;99.90;;;;;;4992534;28;20211;-77
2020/12/26 05:49:58;;;;;;;26.63;13.85;;;-0.20;99.90;;;;;;4992702;28;20230;-75
2020/12/26 05:52:29;;;;;;;26.85;15.63;;;-0.20;99.90;;;;;;4982205;28;20246;-76
2020/12/26 05:54:56;;;;;;;29.48;16.70;;;-0.20;99.90;;;;;;4972879;28;20204;-76
2020/12/26 05:57:22;;;;;;;26.35;16.15;;;-0.30;99.90;;;;;;4972652;28;20207;-76
2020/12/26 05:59:50;;;;;;;15.45;10.15;;;-0.30;99.90;;;;;;4973089;28;20200;-76
2020/12/26 06:02:24;;;;;;;19.67;10.15;;;-0.40;99.90;;;;;;4972153;28;20554;-76
2020/12/26 06:05:00;;;;;;;16.60;9.30;;;-0.40;99.90;;;;;;4972780;28;20228;-76
2020/12/26 06:07:28;;;;;;;18.08;9.90;;;-0.40;99.90;;;;;;4972408;28;20207;-76
2020/12/26 06:09:58;;;;;;;16.75;9.50;;;-0.40;99.90;;;;;;4972610;28;20336;-75
2020/12/26 06:12:25;;;;;;;19.63;10.00;;;-0.50;99.90;;;;;;4971850;28;20208;-75
2020/12/26 06:14:52;;;;;;;16.55;9.63;;;-0.50;99.90;;;;;;4972226;28;20243;-75
2020/12/26 06:17:27;;;;;;;33.65;18.10;;;-0.60;99.90;;;;;;4971168;28;20676;-75
2020/12/26 06:20:00;;;;;;;18.05;12.25;;;-0.60;99.90;;;;;;4972244;28;20211;-76
2020/12/26 06:22:42;;;;;;;19.15;10.80;;;-0.70;99.90;;;;;;4974873;28;20208;-75
2020/12/26 06:25:11;;;;;;;25.30;14.73;;;-0.80;99.90;;;;;;4971876;28;20215;-76
2020/12/26 06:27:45;;;;;;;16.35;9.90;;;-0.90;99.90;;;;;;4972428;28;20263;-76
2020/12/26 06:30:12;;;;;;;13.98;8.57;;;-1.00;99.90;;;;;;4972212;28;20234;-75
2020/12/26 06:32:40;;;;;;;14.38;8.50;;;-1.00;99.90;;;;;;4971617;28;20204;-75
2020/12/26 06:35:07;;;;;;;14.15;9.63;;;-1.00;99.90;;;;;;4972055;28;20204;-75
2020/12/26 06:37:35;;;;;;;13.48;8.60;;;-1.00;99.90;;;;;;4972039;28;20210;-76
2020/12/26 06:40:28;;;;;;;14.15;9.68;;;-1.10;99.90;;;;;;4972114;28;20250;-76
2020/12/26 06:42:55;;;;;;;14.30;9.18;;;-1.20;99.90;;;;;;4971388;28;20627;-74
2020/12/26 06:45:30;;;;;;;13.48;8.73;;;-1.20;99.90;;;;;;4971678;28;20227;-75
2020/12/26 06:47:56;;;;;;;12.85;8.15;;;-1.30;99.90;;;;;;4971726;28;20706;-76
2020/12/26 06:50:23;;;;;;;13.82;8.55;;;-1.30;99.90;;;;;;4971665;28;20199;-76
2020/12/26 06:52:50;;;;;;;12.50;7.50;;;-1.30;99.90;;;;;;4974270;28;20612;-76
2020/12/26 06:55:39;;;;;;;13.88;7.55;;;-1.30;99.90;;;;;;4971294;28;21026;-76
2020/12/26 06:58:06;;;;;;;12.32;7.97;;;-1.40;99.90;;;;;;4971726;28;20291;-76
2020/12/26 07:00:33;;;;;;;13.70;8.75;;;-1.30;99.90;;;;;;4971404;28;20204;-75
2020/12/26 07:03:18;;;;;;;12.70;8.35;;;-1.40;99.90;;;;;;4977175;28;20331;-76
2020/12/26 07:05:45;;;;;;;17.67;9.60;;;-1.40;99.90;;;;;;4970889;28;20231;-76
2020/12/26 07:08:29;;;;;;;13.30;8.50;;;-1.40;99.90;;;;;;4971164;28;20951;-75
2020/12/26 07:10:59;;;;;;;13.20;8.93;;;-1.30;99.90;;;;;;4970955;28;20215;-75
2020/12/26 07:13:44;;;;;;;13.15;7.90;;;-1.30;99.90;;;;;;4970457;28;20232;-74
2020/12/26 07:16:36;;;;;;;16.67;9.23;;;-1.20;99.90;;;;;;4970750;28;20222;-75
2020/12/26 07:19:22;;;;;;;13.10;8.15;;;-1.20;99.90;;;;;;4971120;28;20210;-73
2020/12/26 07:21:49;;;;;;;13.65;8.63;;;-1.20;99.90;;;;;;4973314;28;20200;-73
2020/12/26 07:24:16;;;;;;;15.50;8.25;;;-1.10;99.90;;;;;;4970537;28;20223;-74
2020/12/26 07:26:43;;;;;;;12.95;7.88;;;-1.10;99.90;;;;;;4970927;28;20200;-76
2020/12/26 07:29:10;;;;;;;13.57;8.90;;;-1.00;99.90;;;;;;4967703;28;20211;-74
2020/12/26 07:31:47;;;;;;;16.80;7.90;;;-1.00;99.90;;;;;;4970050;28;20281;-76
2020/12/26 07:34:37;;;;;;;14.68;8.40;;;-1.00;99.90;;;;;;4970533;28;20298;-76
2020/12/26 07:37:05;;;;;;;11.38;8.02;;;-0.90;99.90;;;;;;4970776;28;20265;-76
2020/12/26 07:39:31;;;;;;;11.52;8.65;;;-0.80;99.90;;;;;;4970632;28;20263;-76
2020/12/26 07:41:59;;;;;;;12.43;7.65;;;-0.80;99.90;;;;;;4970425;28;20215;-77
2020/12/26 07:44:29;;;;;;;14.55;8.00;;;-0.80;99.90;;;;;;4970450;28;20231;-77
2020/12/26 07:46:57;;;;;;;15.32;8.13;;;-0.70;99.90;;;;;;4971030;28;20211;-77
2020/12/26 07:49:24;;;;;;;13.82;7.93;;;-0.70;99.90;;;;;;4970918;28;20208;-77
2020/12/26 07:52:04;;;;;;;13.43;7.10;;;-0.60;99.90;;;;;;4973445;28;20207;-77
2020/12/26 07:54:30;;;;;;;47.75;25.13;;;-0.60;99.90;;;;;;4970923;28;20277;-77
2020/12/26 07:56:57;;;;;;;26.40;12.45;;;-0.50;99.90;;;;;;4970985;28;20282;-77
2020/12/26 07:59:24;;;;;;;13.85;8.73;;;-0.40;99.90;;;;;;4971082;28;20203;-75
2020/12/26 08:01:52;;;;;;;14.93;8.55;;;-0.20;99.90;;;;;;4970039;28;20204;-73
2020/12/26 08:04:18;;;;;;;13.90;7.93;;;0.20;99.90;;;;;;4972186;28;20220;-73
2020/12/26 08:06:46;;;;;;;11.05;7.55;;;0.60;99.90;;;;;;4989978;28;20294;-74
2020/12/26 08:09:13;;;;;;;14.40;8.00;;;0.90;99.90;;;;;;4989757;28;20207;-74
2020/12/26 08:11:39;;;;;;;10.98;8.15;;;1.50;99.90;;;;;;4989228;28;20210;-73
2020/12/26 08:14:06;;;;;;;8.50;6.93;;;1.80;99.90;;;;;;4989668;28;20229;-74
2020/12/26 08:16:33;;;;;;;8.07;6.13;;;2.10;99.90;;;;;;4989726;28;20218;-73
2020/12/26 08:19:01;;;;;;;12.98;7.32;;;2.30;99.90;;;;;;4989476;28;20572;-74
2020/12/26 08:21:28;;;;;;;8.00;6.55;;;2.00;99.90;;;;;;4987556;28;20214;-74
2020/12/26 08:23:57;;;;;;;9.95;7.40;;;2.00;99.90;;;;;;4969528;28;20224;-74
2020/12/26 08:26:25;;;;;;;11.90;8.02;;;2.10;99.90;;;;;;4970659;28;20215;-75
2020/12/26 08:28:53;;;;;;;10.23;6.57;;;2.30;99.90;;;;;;4970075;28;20203;-74
2020/12/26 08:31:23;;;;;;;8.77;6.03;;;2.30;99.90;;;;;;4970010;28;20200;-75
2020/12/26 08:34:00;;;;;;;10.98;7.72;;;2.10;99.90;;;;;;4969544;28;20227;-74
2020/12/26 08:36:32;;;;;;;11.27;7.00;;;1.90;99.90;;;;;;4970233;28;20212;-74
2020/12/26 08:39:00;;;;;;;12.93;7.93;;;1.90;99.90;;;;;;4970318;28;20688;-74
2020/12/26 08:41:26;;;;;;;10.00;7.03;;;1.90;99.90;;;;;;4972627;28;20207;-73
2020/12/26 08:43:53;;;;;;;10.80;8.15;;;1.90;99.90;;;;;;4973315;28;20223;-73
2020/12/26 08:46:23;;;;;;;13.45;7.82;;;1.80;99.90;;;;;;4973685;28;20290;-74
2020/12/26 08:48:49;;;;;;;10.65;6.95;;;1.60;99.90;;;;;;4974098;28;20257;-74
2020/12/26 08:51:21;;;;;;;15.30;7.82;;;1.50;99.90;;;;;;4976697;28;20301;-74
2020/12/26 08:53:48;;;;;;;11.65;7.57;;;1.50;99.90;;;;;;4973387;28;20211;-74
2020/12/26 08:56:14;;;;;;;12.20;7.22;;;1.60;99.90;;;;;;4973707;28;20208;-74
2020/12/26 08:58:48;;;;;;;12.65;8.20;;;1.70;99.90;;;;;;4973886;28;20200;-74
2020/12/26 09:01:14;;;;;;;13.13;8.02;;;1.80;99.90;;;;;;4973679;28;20203;-74
2020/12/26 09:03:48;;;;;;;9.80;6.90;;;1.80;99.90;;;;;;4973019;28;20224;-77
2020/12/26 09:06:14;;;;;;;10.50;7.68;;;1.80;99.90;;;;;;4973762;28;20647;-76
2020/12/26 09:08:41;;;;;;;9.80;6.80;;;1.90;99.90;;;;;;4973647;28;20200;-76
2020/12/26 09:11:10;;;;;;;8.70;7.03;;;2.20;99.90;;;;;;4973289;28;20203;-72
2020/12/26 09:13:38;;;;;;;8.43;7.15;;;2.10;99.90;;;;;;4971481;28;20216;-72
2020/12/26 09:16:09;;;;;;;8.57;6.57;;;2.20;99.90;;;;;;4972321;28;20207;-72
2020/12/26 09:18:41;;;;;;;11.38;6.63;;;2.30;99.90;;;;;;4977851;28;20693;-72
2020/12/26 09:21:09;;;;;;;8.18;6.88;;;2.30;99.90;;;;;;4972429;28;20204;-73
2020/12/26 09:23:39;;;;;;;13.50;7.63;;;2.30;99.90;;;;;;4972177;28;20223;-73
2020/12/26 09:26:10;;;;;;;15.07;9.95;;;2.30;99.90;;;;;;4972092;28;20220;-73
2020/12/26 09:28:44;;;;;;;11.93;8.20;;;2.40;99.90;;;;;;4972983;28;20593;-73
2020/12/26 09:31:15;;;;;;;10.98;5.93;;;2.90;99.90;;;;;;4972380;28;20199;-73
2020/12/26 09:33:42;;;;;;;8.23;6.15;;;3.50;99.90;;;;;;4973762;28;20219;-73
2020/12/26 09:36:15;;;;;;;6.80;5.70;;;3.90;99.90;;;;;;4991515;28;20202;-72
2020/12/26 09:38:44;;;;;;;8.40;5.93;;;3.90;99.90;;;;;;4991964;28;20199;-73
2020/12/26 09:41:17;;;;;;;10.07;5.85;;;4.30;99.90;;;;;;4991513;28;20195;-72
2020/12/26 09:43:44;;;;;;;8.85;5.95;;;4.40;99.90;;;;;;4991384;28;20223;-72
2020/12/26 09:46:14;;;;;;;6.65;5.72;;;4.70;99.90;;;;;;4986361;28;20247;-72
2020/12/26 09:48:44;;;;;;;6.82;5.15;;;4.90;99.90;;;;;;4981661;28;20397;-73
2020/12/26 09:51:14;;;;;;;7.53;5.40;;;5.00;99.90;;;;;;4977868;28;20211;-73
2020/12/26 09:53:43;;;;;;;5.53;5.03;;;5.10;99.90;;;;;;4971834;28;20239;-72
2020/12/26 09:56:14;;;;;;;5.20;4.53;;;5.20;99.90;;;;;;4972054;28;20199;-72
2020/12/26 09:58:45;;;;;;;6.85;5.40;;;5.50;99.90;;;;;;4980379;28;20208;-72
2020/12/26 10:01:13;;;;;;;5.65;4.70;;;5.50;99.90;;;;;;4985543;28;20554;-72
2020/12/26 10:03:42;;;;;;;7.13;4.13;;;5.50;99.90;;;;;;4987652;28;20218;-72
2020/12/26 10:06:15;;;;;;;7.20;4.85;;;5.20;99.90;;;;;;4984790;28;20219;-73
2020/12/26 10:08:43;;;;;;;6.55;4.68;;;5.10;99.90;;;;;;4991500;28;20195;-73
2020/12/26 10:11:10;;;;;;;5.15;4.65;;;4.60;99.90;;;;;;4991081;28;20664;-73
2020/12/26 10:13:36;;;;;;;6.38;5.03;;;4.30;99.90;;;;;;4979505;28;20211;-72
2020/12/26 10:16:03;;;;;;;6.03;4.47;;;4.00;99.90;;;;;;4971891;28;20234;-72
2020/12/26 10:18:35;;;;;;;6.95;4.55;;;3.70;99.90;;;;;;4971859;28;20207;-73
2020/12/26 10:21:05;;;;;;;4.53;4.10;;;3.90;99.90;;;;;;4971365;28;20611;-72
2020/12/26 10:23:34;;;;;;;4.72;4.10;;;4.10;99.90;;;;;;4987487;28;20219;-73
2020/12/26 10:26:05;;;;;;;5.93;4.20;;;4.20;99.90;;;;;;4988758;28;20222;-72
2020/12/26 10:28:32;;;;;;;5.40;4.35;;;4.30;99.90;;;;;;5026000;23;20233;-91
2020/12/26 10:30:59;;;;;;;7.65;4.90;;;4.50;99.90;;;;;;5050193;28;20208;-91
2020/12/26 10:36:48;;;;;;;4.53;4.03;;;4.70;99.90;;;;;;5005331;28;20222;-90
2020/12/26 10:44:43;;;;;;;5.13;4.20;;;5.30;99.90;;;;;;4993188;28;20199;-93
2020/12/26 10:49:50;;;;;;;15.45;10.65;;;5.60;99.90;;;;;;5016331;28;20274;-92
2020/12/26 10:52:17;;;;;;;9.38;4.47;;;6.10;99.90;;;;;;5018055;28;20195;-95
2020/12/26 10:54:43;;;;;;;4.80;4.30;;;6.10;99.90;;;;;;5015808;28;20203;-93
2020/12/26 10:57:10;;;;;;;4.80;4.30;;;6.20;99.90;;;;;;5013384;28;20214;-94
2020/12/26 10:59:38;;;;;;;4.53;3.95;;;6.30;99.90;;;;;;5017139;28;20211;-93
2020/12/26 11:07:30;;;;;;;5.28;4.15;;;5.90;99.90;;;;;;4992176;23;20205;-72
2020/12/26 11:09:56;;;;;;;4.00;3.60;;;6.10;99.90;;;;;;4980164;28;20204;-72
2020/12/26 11:12:22;;;;;;;4.88;4.38;;;6.00;99.90;;;;;;4976088;28;20561;-72
2020/12/26 11:14:49;;;;;;;4.50;3.70;;;5.90;99.90;;;;;;4986436;28;20428;-71
2020/12/26 11:17:15;;;;;;;5.18;4.60;;;5.70;99.90;;;;;;4983099;28;20207;-73
2020/12/26 11:19:42;;;;;;;4.80;4.07;;;5.40;99.90;;;;;;4980438;28;20207;-71
2020/12/26 11:22:08;;;;;;;5.75;4.40;;;5.30;99.90;;;;;;4988352;28;20199;-71
2020/12/26 11:24:36;;;;;;;5.97;4.45;;;5.30;99.90;;;;;;4988685;28;20274;-71
2020/12/26 11:27:02;;;;;;;5.53;4.40;;;5.10;99.90;;;;;;4988708;28;20211;-71
2020/12/26 11:29:29;;;;;;;5.35;4.28;;;5.10;99.90;;;;;;4988282;28;20207;-73
2020/12/26 11:31:58;;;;;;;5.70;4.43;;;5.10;99.90;;;;;;4988185;28;20259;-73
2020/12/26 11:34:25;;;;;;;5.50;5.00;;;5.30;99.90;;;;;;4986664;28;20309;-73
2020/12/26 11:36:51;;;;;;;4.78;3.92;;;5.30;99.90;;;;;;4988575;28;20199;-71
2020/12/26 11:39:19;;;;;;;5.45;4.60;;;5.30;99.90;;;;;;4988124;28;20229;-70
2020/12/26 11:41:46;;;;;;;4.22;3.83;;;5.40;99.90;;;;;;4987622;28;20199;-71
2020/12/26 11:44:17;;;;;;;7.95;4.90;;;5.80;99.90;;;;;;4987941;28;20222;-71
2020/12/26 11:46:43;;;;;;;5.38;4.47;;;5.90;99.90;;;;;;4988190;28;20211;-73
2020/12/26 11:49:09;;;;;;;5.13;3.88;;;6.40;99.90;;;;;;4987543;28;20207;-72
2020/12/26 11:51:36;;;;;;;5.43;4.00;;;6.60;99.90;;;;;;4987263;28;20674;-73
2020/12/26 11:54:02;;;;;;;4.70;4.20;;;6.70;99.90;;;;;;4988022;28;20706;-73
2020/12/26 11:56:28;;;;;;;5.00;4.35;;;6.60;99.90;;;;;;4989719;28;20217;-71
2020/12/26 11:58:56;;;;;;;5.35;3.95;;;6.70;99.90;;;;;;4989629;28;20207;-71
2020/12/26 12:01:23;;;;;;;4.95;3.95;;;7.00;99.90;;;;;;4988543;28;20214;-71
2020/12/26 12:03:49;;;;;;;4.72;4.22;;;7.00;99.90;;;;;;4967581;28;20228;-71
2020/12/26 12:06:15;;;;;;;4.40;4.00;;;6.90;99.90;;;;;;4967933;28;20227;-71
2020/12/26 12:08:42;;;;;;;5.78;4.30;;;6.80;99.90;;;;;;4968854;28;20730;-71
2020/12/26 12:11:09;;;;;;;4.65;4.20;;;6.90;99.90;;;;;;4967156;28;20266;-71
2020/12/26 12:13:36;;;;;;;5.40;4.20;;;7.00;99.90;;;;;;4966666;28;20220;-70
2020/12/26 12:16:04;;;;;;;3.72;2.90;;;7.20;99.90;;;;;;4968482;28;20204;-71
2020/12/26 12:18:31;;;;;;;4.50;3.80;;;7.40;99.90;;;;;;4968692;28;20212;-70
2020/12/26 12:20:58;;;;;;;4.38;3.75;;;7.40;99.90;;;;;;4968644;28;20212;-73
2020/12/26 12:23:25;;;;;;;7.30;4.40;;;7.20;99.90;;;;;;4968008;28;20323;-72
2020/12/26 12:25:52;;;;;;;3.75;3.35;;;6.90;99.90;;;;;;4968734;28;20234;-72
2020/12/26 12:28:18;;;;;;;6.20;4.40;;;6.70;99.90;;;;;;4968397;28;21098;-70
2020/12/26 12:30:44;;;;;;;4.82;4.00;;;6.30;99.90;;;;;;4968575;28;20208;-72
2020/12/26 12:33:12;;;;;;;5.80;4.55;;;6.10;99.90;;;;;;4967687;28;20718;-71
2020/12/26 12:35:38;;;;;;;7.88;3.90;;;5.80;99.90;;;;;;4968405;28;20206;-73
2020/12/26 12:38:05;;;;;;;6.18;4.30;;;5.80;99.90;;;;;;4968738;28;20199;-71
2020/12/26 12:40:31;;;;;;;4.85;4.18;;;5.80;99.90;;;;;;4967890;28;20303;-71
2020/12/26 12:42:58;;;;;;;6.28;4.22;;;5.70;99.90;;;;;;4967804;28;20227;-71
2020/12/26 12:45:24;;;;;;;5.40;4.85;;;5.70;99.90;;;;;;4967792;28;20266;-70
2020/12/26 12:47:51;;;;;;;6.50;4.35;;;5.90;99.90;;;;;;4968493;28;20576;-70
2020/12/26 12:50:19;;;;;;;6.93;4.10;;;6.00;99.90;;;;;;4968322;28;20218;-71
2020/12/26 12:52:45;;;;;;;4.38;3.92;;;6.10;99.90;;;;;;4967539;28;20302;-70
2020/12/26 12:55:12;;;;;;;4.68;3.88;;;6.10;99.90;;;;;;4968112;28;20582;-71
2020/12/26 12:57:39;;;;;;;5.70;3.67;;;6.00;99.90;;;;;;4968282;28;20208;-71
2020/12/26 13:00:06;;;;;;;4.32;3.83;;;5.90;99.90;;;;;;4968228;28;20263;-71
2020/12/26 13:02:32;;;;;;;4.82;4.18;;;6.00;99.90;;;;;;4967830;28;20212;-71
2020/12/26 13:04:59;;;;;;;10.25;6.88;;;6.00;99.90;;;;;;4967924;28;20216;-71